Skagen, Denmark
Current Conditions -  °F | °C
As of 6:20 AM on Thursday 27 Nov 2014 (Local Time) from ESGP Reporting Station
Overcast Overcast  
Wind Chill:   Ceiling: 2000
Heat Index:   Visibility: 6mi
Dew Point:   Wind: 5mph
Humidity: 93%   Direction: 60°ENE
Pressure: 30.15"   Gusts: NA
Location:  57.72°N, 10.58°E
Report Text: ESGP 270520Z 06004KT 9999 OVC020 03/02 Q1021
Loading
Personal Weather Stations






























Interactive Weather Map New forecast layout! Learn more

10-Day Weather Forecast

Advertisements
Track Severe Weather on mobile